Time;durP1;ratioP1;P1;durP2;ratioP2;P2;SDS_P1;SDS_P2;PMS_P1;PMS_P2;Temp;Humidity;BMP_temperature;BMP_pressure;BME280_temperature;BME280_humidity;BME280_pressure;Samples;Min_cycle;Max_cycle;Signal;HPM_P1;HPM_P2
2021/03/31 00:00:51;;;;;;;;;27.90;23.10;;;;;5.51;65.54;101987.74;481685;113;384512;-70
2021/03/31 00:01:55;;;;;;;;;30.70;27.50;;;;;5.48;65.93;101990.48;482101;113;388925;-69
2021/03/31 00:02:59;;;;;;;;;25.90;24.60;;;;;5.48;65.93;101990.48;482081;113;383523;-69
2021/03/31 00:04:03;;;;;;;;;27.60;25.30;;;;;5.45;66.08;101990.58;481852;113;389707;-68
2021/03/31 00:05:09;;;;;;;;;21.50;20.30;;;;;5.42;65.99;101981.90;481930;113;384080;-70
2021/03/31 00:06:13;;;;;;;;;26.10;22.30;;;;;5.18;67.01;101976.48;481591;113;383479;-68
2021/03/31 00:07:20;;;;;;;;;25.80;23.00;;;;;5.21;66.95;101978.16;482130;113;383822;-70
2021/03/31 00:08:24;;;;;;;;;26.80;25.80;;;;;5.20;66.79;101979.92;481107;113;384861;-71
2021/03/31 00:09:27;;;;;;;;;28.40;22.90;;;;;5.24;66.84;101972.78;482148;113;383510;-70
2021/03/31 00:10:34;;;;;;;;;29.10;23.40;;;;;5.24;66.84;101972.78;481844;113;390427;-71
2021/03/31 00:11:38;;;;;;;;;29.40;25.40;;;;;5.30;66.34;101981.36;481800;113;385096;-69
2021/03/31 00:12:42;;;;;;;;;29.30;25.10;;;;;5.30;66.34;101981.36;482134;113;383215;-68
2021/03/31 00:13:46;;;;;;;;;28.30;26.70;;;;;5.34;66.43;101980.36;482062;113;385606;-67
2021/03/31 00:14:50;;;;;;;;;28.20;26.00;;;;;5.34;66.43;101980.36;482119;113;384184;-67
2021/03/31 00:15:54;;;;;;;;;26.00;23.20;;;;;5.37;66.68;101981.16;481649;113;383558;-67
2021/03/31 00:16:57;;;;;;;;;20.00;16.70;;;;;5.34;66.40;101983.00;482198;113;382265;-67
2021/03/31 00:18:01;;;;;;;;;27.10;23.90;;;;;5.32;66.32;101983.97;482157;113;383464;-67
2021/03/31 00:19:05;;;;;;;;;29.70;26.30;;;;;5.30;66.57;101981.36;482067;113;391227;-67
2021/03/31 00:20:12;;;;;;;;;26.50;23.90;;;;;5.31;66.43;101983.10;482104;113;383652;-67
2021/03/31 00:21:16;;;;;;;;;20.80;18.70;;;;;5.29;66.30;101974.38;481644;113;384070;-67
2021/03/31 00:22:20;;;;;;;;;28.50;23.40;;;;;5.29;66.30;101974.38;482045;113;389386;-66
2021/03/31 00:23:25;;;;;;;;;31.50;27.30;;;;;5.21;66.75;101976.38;482031;113;391652;-67
2021/03/31 00:24:29;;;;;;;;;30.50;26.20;;;;;5.21;66.75;101976.38;481603;113;385394;-67
2021/03/31 00:25:33;;;;;;;;;30.10;25.70;;;;;5.21;66.82;101976.38;482142;113;384868;-65
2021/03/31 00:26:39;;;;;;;;;32.40;29.60;;;;;5.18;66.83;101973.84;481373;113;386184;-68
2021/03/31 00:27:43;;;;;;;;;27.10;24.80;;;;;5.18;66.83;101973.84;482224;113;383374;-66
2021/03/31 00:28:46;;;;;;;;;30.10;25.70;;;;;5.16;66.81;101977.45;481680;113;384904;-68
2021/03/31 00:29:50;;;;;;;;;24.20;21.80;;;;;5.17;66.82;101966.83;482126;113;383476;-68
2021/03/31 00:30:55;;;;;;;;;23.80;21.00;;;;;4.96;67.76;101978.05;482148;113;390172;-66
2021/03/31 00:31:58;;;;;;;;;29.80;26.80;;;;;4.99;67.88;101979.73;481849;113;385469;-69
2021/03/31 00:33:03;;;;;;;;;32.70;30.50;;;;;5.05;68.24;101983.04;482163;113;385293;-68
2021/03/31 00:34:07;;;;;;;;;27.80;27.30;;;;;5.05;68.24;101983.04;481777;113;388447;-67
2021/03/31 00:35:11;;;;;;;;;29.40;27.10;;;;;5.18;67.24;101981.75;482137;113;384090;-68
2021/03/31 00:36:15;;;;;;;;;30.60;27.50;;;;;5.18;67.24;101981.75;481834;113;393271;-68
2021/03/31 00:37:19;;;;;;;;;31.30;26.00;;;;;5.18;67.12;101976.48;482089;113;384599;-69
2021/03/31 00:38:23;;;;;;;;;28.60;25.70;;;;;5.18;67.12;101976.48;481696;113;384761;-68
2021/03/31 00:39:27;;;;;;;;;33.30;29.00;;;;;5.14;67.68;101980.12;482099;113;385832;-68
2021/03/31 00:40:32;;;;;;;;;30.20;28.00;;;;;5.21;67.25;101978.16;482104;113;385590;-68
2021/03/31 00:41:36;;;;;;;;;31.80;27.20;;;;;5.21;67.95;101976.38;481580;113;385283;-68
2021/03/31 00:42:40;;;;;;;;;29.40;28.10;;;;;5.26;67.43;101981.53;482056;113;392132;-68
2021/03/31 00:43:44;;;;;;;;;28.40;24.70;;;;;5.28;66.93;101975.28;482166;113;383871;-68
2021/03/31 00:44:48;;;;;;;;;35.80;31.10;;;;;5.28;66.93;101975.28;481654;113;392578;-67
2021/03/31 00:45:52;;;;;;;;;31.20;28.50;;;;;5.16;67.35;101972.17;481592;113;391453;-67
2021/03/31 00:46:57;;;;;;;;;34.30;30.90;;;;;5.16;67.35;101972.17;481106;113;385642;-69
2021/03/31 00:48:01;;;;;;;;;29.20;27.60;;;;;5.19;67.43;101978.22;481590;113;385617;-69
2021/03/31 00:49:05;;;;;;;;;32.70;28.60;;;;;5.13;68.33;101983.69;481642;113;384755;-69
2021/03/31 00:50:12;;;;;;;;;29.10;25.60;;;;;5.12;68.35;101978.45;481441;113;384022;-68
2021/03/31 00:51:16;;;;;;;;;28.20;26.10;;;;;5.15;68.14;101983.63;480667;113;383837;-69
2021/03/31 00:52:20;;;;;;;;;35.00;27.70;;;;;5.15;68.14;101983.63;481613;113;386868;-68
2021/03/31 00:53:26;;;;;;;;;36.70;32.90;;;;;5.17;67.47;101977.38;481620;113;386081;-69
2021/03/31 00:54:30;;;;;;;;;32.50;30.80;;;;;5.21;67.68;101976.38;481105;113;386145;-69
2021/03/31 00:55:35;;;;;;;;;32.80;30.20;;;;;5.24;67.35;101976.28;481634;113;386262;-69
2021/03/31 00:56:40;;;;;;;;;26.10;23.70;;;;;5.24;67.35;101976.28;481148;113;382632;-69
2021/03/31 00:57:44;;;;;;;;;28.20;22.00;;;;;5.24;67.15;101976.28;481674;113;386411;-70
2021/03/31 00:58:47;;;;;;;;;29.40;26.10;;;;;5.33;67.08;101975.98;481664;113;384292;-69
2021/03/31 00:59:51;;;;;;;;;29.70;27.60;;;;;5.33;66.63;101970.71;481636;113;385909;-67
2021/03/31 01:00:55;;;;;;;;;28.90;25.80;;;;;5.33;66.63;101970.71;481693;113;389075;-69
2021/03/31 01:01:59;;;;;;;;;25.50;24.00;;;;;5.31;66.83;101977.83;481685;113;383295;-69
2021/03/31 01:03:03;;;;;;;;;31.20;28.80;;;;;5.30;66.69;101978.73;481584;113;391341;-69
2021/03/31 01:04:07;;;;;;;;;28.10;25.10;;;;;5.26;66.40;101979.73;481657;113;390011;-70
2021/03/31 01:05:13;;;;;;;;;29.10;25.80;;;;;5.21;66.58;101976.38;481197;113;383980;-71
2021/03/31 01:06:19;;;;;;;;;16.20;10.60;;;;;5.23;66.89;101973.71;481296;113;376903;-71
2021/03/31 01:07:23;;;;;;;;;27.70;25.10;;;;;5.23;66.89;101973.71;481384;113;384228;-71
2021/03/31 01:08:27;;;;;;;;;32.60;28.10;;;;;5.25;66.48;101978.02;481116;113;390422;-69
2021/03/31 01:09:31;;;;;;;;;27.10;23.90;;;;;5.25;66.48;101978.02;481635;113;391907;-69
2021/03/31 01:10:37;;;;;;;;;30.20;26.00;;;;;5.25;66.51;101967.47;481711;113;389702;-69
2021/03/31 01:11:45;;;;;;;;;25.40;24.10;;;;;5.25;66.51;101967.47;481154;113;383035;-67
2021/03/31 01:13:05;;;;;;;;;30.80;25.80;;;;;5.15;66.86;101960.75;481335;113;384192;-67
2021/03/31 01:14:14;;;;;;;;;26.30;24.20;;;;;5.17;66.81;101961.55;481181;113;384012;-68
2021/03/31 01:15:19;;;;;;;;;29.10;25.10;;;;;5.10;66.85;101956.55;481078;113;384959;-66
2021/03/31 01:16:30;;;;;;;;;30.20;24.00;;;;;5.10;66.85;101956.55;481152;113;384080;-67
2021/03/31 01:17:36;;;;;;;;;29.40;23.00;;;;;5.13;67.09;101961.72;481142;113;383871;-67
2021/03/31 01:18:43;;;;;;;;;29.70;26.30;;;;;5.14;67.12;101961.66;481094;113;387838;-66
2021/03/31 01:20:00;;;;;;;;;32.70;25.30;;;;;5.17;66.91;101955.45;481158;113;386491;-64
2021/03/31 01:21:37;;;;;;;;;31.60;28.00;;;;;5.17;66.71;101958.92;481102;113;384687;-67
2021/03/31 01:23:24;;;;;;;;;30.00;26.60;;;;;5.17;66.71;101958.92;481151;113;384968;-68
2021/03/31 01:24:58;;;;;;;;;29.60;26.30;;;;;5.17;66.78;101961.55;481037;113;385204;-69
2021/03/31 01:26:05;;;;;;;;;23.00;17.10;;;;;5.08;66.77;101958.34;461394;117;386238;-70
2021/03/31 01:27:10;;;;;;;;;27.00;26.10;;;;;5.07;66.82;101960.14;481096;113;390779;-71
2021/03/31 01:28:57;;;;;;;;;31.80;27.60;;;;;5.07;66.82;101960.14;481026;113;386177;-70
2021/03/31 01:30:11;;;;;;;;;25.90;25.60;;;;;4.99;66.85;101950.72;481056;113;385035;-69
2021/03/31 01:31:23;;;;;;;;;31.70;24.10;;;;;5.03;66.97;101952.36;481159;113;382853;-71
2021/03/31 01:32:39;;;;;;;;;29.10;24.20;;;;;5.03;66.97;101952.36;481166;113;384254;-70
2021/03/31 01:34:11;;;;;;;;;33.60;28.70;;;;;5.12;66.63;101955.58;481071;113;385547;-67
2021/03/31 01:35:16;;;;;;;;;38.00;30.80;;;;;5.12;66.63;101955.58;480987;113;385631;-69
2021/03/31 01:36:20;;;;;;;;;34.40;29.30;;;;;5.12;66.51;101955.58;481176;113;384520;-68
2021/03/31 01:37:26;;;;;;;;;32.70;29.30;;;;;5.13;66.54;101956.45;481591;113;392439;-68
2021/03/31 01:38:29;;;;;;;;;33.70;30.80;;;;;5.04;66.39;101954.94;481059;113;386006;-68
2021/03/31 01:39:33;;;;;;;;;29.80;27.80;;;;;4.90;67.02;101951.87;481603;113;389664;-67
2021/03/31 01:40:43;;;;;;;;;38.30;37.20;;;;;4.90;67.10;101949.24;481109;113;386863;-68
2021/03/31 01:41:47;;;;;;;;;33.40;30.20;;;;;4.90;67.10;101949.24;480590;113;385377;-69
2021/03/31 01:42:53;;;;;;;;;40.40;33.00;;;;;4.95;66.87;101949.08;481686;113;385584;-69
2021/03/31 01:43:57;;;;;;;;;34.40;30.70;;;;;4.99;66.70;101953.36;481154;113;385395;-69
2021/03/31 01:45:02;;;;;;;;;41.20;33.60;;;;;5.08;66.46;101953.94;481584;113;386332;-69
2021/03/31 01:46:06;;;;;;;;;37.70;34.20;;;;;5.08;66.46;101953.94;481316;113;385028;-68
2021/03/31 01:47:11;;;;;;;;;40.70;37.20;;;;;5.11;66.27;101952.97;481518;113;392854;-67
2021/03/31 01:48:17;;;;;;;;;44.20;37.40;;;;;5.13;66.10;101952.04;480592;113;386164;-68
2021/03/31 01:49:21;;;;;;;;;27.10;20.50;;;;;5.12;65.88;101955.58;481115;113;381994;-69
2021/03/31 01:50:25;;;;;;;;;35.00;31.70;;;;;5.11;66.03;101953.84;481347;113;385820;-68
2021/03/31 01:51:29;;;;;;;;;35.80;33.00;;;;;5.11;66.03;101953.84;481650;113;385125;-67
2021/03/31 01:52:33;;;;;;;;;34.30;30.10;;;;;5.12;66.14;101955.58;481684;113;386312;-67
2021/03/31 01:53:37;;;;;;;;;25.90;21.60;;;;;5.13;66.09;101952.04;481675;113;384123;-68
2021/03/31 01:54:43;;;;;;;;;33.80;29.40;;;;;5.13;66.12;101959.08;481140;113;386250;-67
2021/03/31 01:55:48;;;;;;;;;32.00;28.70;;;;;5.07;65.91;101956.64;481043;113;383820;-69
2021/03/31 01:56:52;;;;;;;;;28.40;27.20;;;;;5.10;65.78;101957.41;481370;113;384350;-69
2021/03/31 01:57:56;;;;;;;;;29.50;25.50;;;;;5.10;65.78;101957.41;481628;113;390660;-69
2021/03/31 01:59:00;;;;;;;;;27.80;25.40;;;;;5.05;65.90;101954.04;481646;113;385304;-71
2021/03/31 02:00:06;;;;;;;;;23.40;21.20;;;;;5.05;65.90;101954.04;481766;113;381846;-70
2021/03/31 02:01:13;;;;;;;;;29.20;26.00;;;;;5.01;66.18;101957.67;480684;113;382944;-70
2021/03/31 02:02:17;;;;;;;;;32.80;27.80;;;;;5.05;66.22;101963.72;481434;113;385486;-70
2021/03/31 02:03:21;;;;;;;;;31.80;26.80;;;;;5.05;66.22;101963.72;481665;113;384419;-70
2021/03/31 02:04:25;;;;;;;;;26.50;22.70;;;;;5.01;66.23;101964.75;481154;113;388248;-69
2021/03/31 02:05:29;;;;;;;;;26.60;22.50;;;;;4.90;66.59;101958.92;481694;113;382352;-69
2021/03/31 02:06:33;;;;;;;;;28.70;23.20;;;;;4.89;66.96;101959.82;481382;113;383346;-71
2021/03/31 02:07:37;;;;;;;;;31.20;26.50;;;;;4.91;67.21;101955.38;481702;113;384911;-67
2021/03/31 02:08:41;;;;;;;;;32.50;26.90;;;;;4.94;67.19;101956.16;481556;113;385714;-68
2021/03/31 02:09:45;;;;;;;;;26.20;23.60;;;;;4.94;67.19;101956.16;481422;113;382939;-68
2021/03/31 02:10:50;;;;;;;;;28.90;23.70;;;;;4.91;66.86;101958.89;481354;113;384105;-70
2021/03/31 02:11:53;;;;;;;;;29.10;24.40;;;;;4.91;66.86;101958.89;481419;113;383116;-69
2021/03/31 02:12:57;;;;;;;;;29.90;24.40;;;;;4.82;67.46;101956.50;481633;113;383639;-70
2021/03/31 02:14:01;;;;;;;;;31.10;23.70;;;;;4.82;67.46;101956.50;481643;113;384526;-70
2021/03/31 02:15:07;;;;;;;;;35.10;29.00;;;;;4.83;67.20;101958.24;481512;113;393080;-71
2021/03/31 02:16:12;;;;;;;;;28.10;28.10;;;;;4.83;67.20;101958.24;481122;113;385028;-71
2021/03/31 02:17:16;;;;;;;;;28.50;25.60;;;;;4.85;67.42;101961.68;481716;113;383293;-71
2021/03/31 02:18:20;;;;;;;;;34.00;28.00;;;;;4.80;67.55;101959.20;481396;113;385299;-72
2021/03/31 02:19:24;;;;;;;;;33.00;27.80;;;;;4.81;67.88;101952.16;481622;113;384146;-71
2021/03/31 02:20:28;;;;;;;;;30.40;29.40;;;;;4.82;67.45;101953.87;481356;113;383925;-70
2021/03/31 02:21:33;;;;;;;;;28.90;27.80;;;;;4.85;67.62;101960.84;481610;113;393100;-72
2021/03/31 02:22:37;;;;;;;;;29.30;26.00;;;;;4.85;67.62;101960.84;480818;113;385134;-70
2021/03/31 02:23:42;;;;;;;;;34.60;28.90;;;;;4.86;67.27;101946.73;481599;113;385893;-70
2021/03/31 02:24:46;;;;;;;;;23.40;19.70;;;;;4.89;67.28;101954.55;481475;113;383002;-71
2021/03/31 02:25:50;;;;;;;;;35.60;30.40;;;;;4.89;67.35;101952.78;481624;113;385621;-68
2021/03/31 02:26:53;;;;;;;;;33.20;29.70;;;;;4.91;66.95;101952.75;481064;113;393698;-69
2021/03/31 02:27:57;;;;;;;;;30.50;25.30;;;;;4.91;66.95;101952.75;481116;113;385643;-68
2021/03/31 02:29:02;;;;;;;;;34.00;30.40;;;;;4.89;67.00;101960.69;481687;113;385982;-68
2021/03/31 02:30:08;;;;;;;;;29.80;27.70;;;;;4.89;67.00;101960.69;481343;113;385112;-68
2021/03/31 02:31:12;;;;;;;;;37.70;33.50;;;;;4.88;67.11;101963.39;481110;113;386347;-70
2021/03/31 02:32:18;;;;;;;;;34.10;30.30;;;;;4.87;67.15;101959.88;481640;113;391751;-69
2021/03/31 02:33:22;;;;;;;;;30.10;28.00;;;;;4.89;66.74;101960.69;481074;113;385314;-69
2021/03/31 02:34:26;;;;;;;;;37.30;30.60;;;;;4.89;66.98;101960.69;481585;113;386601;-68
2021/03/31 02:35:30;;;;;;;;;35.20;31.70;;;;;4.88;66.99;101948.44;481605;113;385669;-69
2021/03/31 02:36:35;;;;;;;;;34.50;30.70;;;;;4.72;67.24;101949.81;481069;113;384941;-71
2021/03/31 02:37:39;;;;;;;;;35.40;28.20;;;;;4.73;67.10;101944.48;481629;113;392546;-70
2021/03/31 02:38:43;;;;;;;;;32.40;29.10;;;;;4.71;67.37;101948.08;481586;113;391483;-70
2021/03/31 02:39:47;;;;;;;;;27.70;24.80;;;;;4.71;67.37;101948.08;481450;113;383837;-71
2021/03/31 02:40:51;;;;;;;;;37.50;31.30;;;;;4.56;68.13;101945.90;481338;113;392323;-71
2021/03/31 02:41:57;;;;;;;;;35.30;29.90;;;;;4.56;68.13;101945.90;481562;113;392900;-71
2021/03/31 02:43:01;;;;;;;;;35.70;33.70;;;;;4.61;68.14;101941.34;481190;113;384938;-71
2021/03/31 02:44:06;;;;;;;;;20.60;16.40;;;;;4.64;67.94;101941.25;481871;113;380779;-69
2021/03/31 02:45:11;;;;;;;;;36.30;29.40;;;;;4.50;68.60;101927.64;481349;113;386085;-68
2021/03/31 02:46:18;;;;;;;;;32.20;28.50;;;;;4.50;68.60;101927.64;470553;116;384853;-68
2021/03/31 02:47:25;;;;;;;;;37.00;30.00;;;;;4.48;68.65;101934.70;470510;116;385288;-69
2021/03/31 02:48:29;;;;;;;;;33.00;26.50;;;;;4.51;68.56;101931.98;470838;116;385559;-71
2021/03/31 02:49:32;;;;;;;;;34.90;31.80;;;;;4.32;69.59;101922.88;471057;116;385206;-70
2021/03/31 02:50:37;;;;;;;;;29.70;24.10;;;;;4.32;69.59;101922.88;470354;116;384352;-70
2021/03/31 02:51:41;;;;;;;;;38.20;32.70;;;;;4.20;70.31;101919.70;471043;116;384728;-72
2021/03/31 02:52:45;;;;;;;;;32.60;27.00;;;;;4.20;70.31;101919.70;470982;116;391717;-71
2021/03/31 02:53:49;;;;;;;;;35.20;29.10;;;;;4.15;70.61;101915.45;471061;116;386256;-71
2021/03/31 02:54:52;;;;;;;;;35.20;29.00;;;;;4.09;70.94;101910.36;470593;116;385391;-71
2021/03/31 02:55:56;;;;;;;;;29.40;20.30;;;;;4.10;71.42;101910.33;471167;116;381655;-71
2021/03/31 02:57:00;;;;;;;;;36.70;32.20;;;;;4.17;70.96;101911.89;470276;116;392216;-70
2021/03/31 02:58:04;;;;;;;;;49.10;38.90;;;;;4.17;70.96;101911.89;471080;116;388293;-70
2021/03/31 02:59:08;;;;;;;;;33.20;28.10;;;;;4.17;71.08;101917.16;471033;116;386163;-69
2021/03/31 03:00:14;;;;;;;;;34.80;32.20;;;;;4.17;71.08;101917.16;470366;116;385564;-69
2021/03/31 03:01:18;;;;;;;;;42.20;36.00;;;;;4.32;70.32;101918.48;470547;116;386582;-70
2021/03/31 03:02:22;;;;;;;;;50.80;38.70;;;;;4.32;70.32;101918.48;459989;116;386942;-80
2021/03/31 03:03:26;;;;;;;;;15.60;12.90;;;;;4.23;70.92;101919.62;451401;121;379183;-80
2021/03/31 03:04:30;;;;;;;;;39.90;36.30;;;;;4.23;70.92;101919.62;454608;119;385631;-78
2021/03/31 03:05:34;;;;;;;;;36.70;33.00;;;;;4.30;70.17;101924.70;458537;119;385074;-76
2021/03/31 03:06:38;;;;;;;;;42.70;35.00;;;;;4.30;70.17;101924.70;459025;119;386216;-86
2021/03/31 03:07:42;;;;;;;;;35.70;30.80;;;;;4.45;70.44;101932.16;459108;119;385929;-85
2021/03/31 03:08:46;;;;;;;;;42.30;34.30;;;;;4.48;70.14;101930.30;459345;119;386305;-85
2021/03/31 03:09:50;;;;;;;;;42.50;37.60;;;;;4.48;69.88;101937.34;459425;119;384809;-83
2021/03/31 03:10:56;;;;;;;;;47.40;39.50;;;;;4.49;69.74;101932.04;459231;119;385818;-80
2021/03/31 03:12:00;;;;;;;;;41.70;35.90;;;;;4.52;69.29;101925.81;458597;119;386096;-81
2021/03/31 03:13:04;;;;;;;;;40.50;38.10;;;;;4.53;69.07;101924.91;458983;119;385927;-82
2021/03/31 03:14:08;;;;;;;;;38.10;29.60;;;;;4.47;69.45;101925.06;459067;119;385894;-80
2021/03/31 03:15:14;;;;;;;;;39.90;36.80;;;;;4.47;69.45;101925.06;458693;119;392604;-84
2021/03/31 03:16:20;;;;;;;;;46.30;37.30;;;;;4.37;69.95;101921.00;458535;119;386023;-84
2021/03/31 03:17:24;;;;;;;;;41.00;31.70;;;;;4.39;70.03;101925.30;459005;119;385589;-83
2021/03/31 03:18:28;;;;;;;;;44.30;37.10;;;;;4.29;70.53;101923.84;458536;119;386954;-80
2021/03/31 03:19:32;;;;;;;;;47.40;38.80;;;;;4.16;71.28;101931.22;458519;119;386592;-80
2021/03/31 03:20:36;;;;;;;;;38.30;33.90;;;;;4.04;71.64;101928.94;458983;119;386434;-79
2021/03/31 03:21:40;;;;;;;;;48.30;38.50;;;;;4.04;71.64;101928.94;458963;119;386442;-83
2021/03/31 03:22:45;;;;;;;;;45.40;37.80;;;;;4.13;71.62;101923.41;458910;119;391409;-79
2021/03/31 03:23:49;;;;;;;;;45.70;40.40;;;;;4.13;71.62;101923.41;458071;119;384880;-81
2021/03/31 03:24:53;;;;;;;;;42.90;36.70;;;;;4.20;71.21;101926.73;458987;119;386260;-83
2021/03/31 03:25:57;;;;;;;;;43.10;39.60;;;;;4.28;71.01;101931.80;458496;119;386854;-82
2021/03/31 03:27:01;;;;;;;;;47.90;38.80;;;;;4.22;70.90;101927.55;458917;119;386809;-79
2021/03/31 03:28:05;;;;;;;;;42.60;35.10;;;;;4.22;70.90;101927.55;459031;119;387113;-72
2021/03/31 03:29:09;;;;;;;;;43.90;38.80;;;;;4.18;71.30;101928.56;458692;119;386645;-73
2021/03/31 03:30:15;;;;;;;;;42.70;36.70;;;;;4.21;71.16;101926.67;458772;119;385623;-70
2021/03/31 03:31:19;;;;;;;;;52.20;42.60;;;;;4.25;70.98;101928.33;458478;119;385837;-69
2021/03/31 03:32:23;;;;;;;;;44.60;39.40;;;;;4.30;70.41;101929.97;458914;119;386357;-68
2021/03/31 03:33:26;;;;;;;;;29.50;25.50;;;;;4.33;70.04;101927.25;459022;119;382681;-69
2021/03/31 03:34:30;;;;;;;;;49.80;39.90;;;;;4.36;69.98;101924.53;458447;119;387039;-69
2021/03/31 03:35:34;;;;;;;;;44.80;35.10;;;;;4.36;69.98;101924.53;458871;119;387048;-71
2021/03/31 03:36:41;;;;;;;;;54.00;42.60;;;;;4.39;69.77;101927.94;458955;119;385065;-70
2021/03/31 03:37:45;;;;;;;;;46.80;39.00;;;;;4.42;69.44;101927.84;458754;119;386593;-69
2021/03/31 03:38:49;;;;;;;;;44.40;38.30;;;;;4.42;69.44;101927.84;458702;119;385077;-68
2021/03/31 03:39:53;;;;;;;;;52.20;43.10;;;;;4.41;69.61;101927.88;458705;119;385748;-70
2021/03/31 03:40:57;;;;;;;;;53.50;44.10;;;;;4.41;69.61;101927.88;458930;119;386214;-72
2021/03/31 03:42:01;;;;;;;;;51.40;43.50;;;;;4.39;69.61;101930.58;458875;119;394130;-69
2021/03/31 03:43:05;;;;;;;;;47.40;40.40;;;;;4.28;69.82;101925.60;458704;119;386267;-69
2021/03/31 03:44:09;;;;;;;;;47.90;37.60;;;;;4.31;70.09;101926.44;458717;119;387895;-69
2021/03/31 03:45:14;;;;;;;;;39.10;35.10;;;;;4.03;70.90;101931.59;458962;119;384600;-73
2021/03/31 03:46:19;;;;;;;;;49.90;40.60;;;;;3.98;71.73;101928.23;457193;119;387383;-71
2021/03/31 03:47:23;;;;;;;;;42.10;37.60;;;;;3.98;71.73;101928.23;455966;120;389658;-71
2021/03/31 03:48:27;;;;;;;;;40.10;36.30;;;;;3.95;71.65;101925.69;455963;120;385719;-71
2021/03/31 03:49:32;;;;;;;;;48.50;41.70;;;;;4.00;71.51;101927.28;449836;121;387122;-71
2021/03/31 03:50:38;;;;;;;;;46.30;38.90;;;;;4.01;71.50;101931.66;449814;121;386017;-70
2021/03/31 03:51:42;;;;;;;;;52.20;43.80;;;;;4.09;71.15;101927.02;455786;120;386115;-70
2021/03/31 03:52:49;;;;;;;;;49.60;41.60;;;;;4.09;71.15;101927.02;455987;120;386191;-69
2021/03/31 03:53:53;;;;;;;;;42.60;38.30;;;;;4.20;70.82;101924.11;455445;120;385843;-71
2021/03/31 03:54:57;;;;;;;;;43.40;40.10;;;;;4.20;70.82;101924.11;455989;120;386281;-69
2021/03/31 03:56:01;;;;;;;;;47.40;39.30;;;;;4.12;70.92;101928.70;455629;120;394696;-71
2021/03/31 03:57:07;;;;;;;;;48.60;39.00;;;;;3.95;71.67;101923.92;455963;120;386080;-72
2021/03/31 03:58:10;;;;;;;;;25.60;18.40;;;;;4.01;71.57;101920.25;455824;120;382866;-69
2021/03/31 03:59:21;;;;;;;;;34.80;27.00;;;;;3.96;71.93;101914.23;456011;120;384706;-67
2021/03/31 04:00:27;;;;;;;;;43.10;36.30;;;;;3.72;72.64;101921.03;455048;120;386017;-70
2021/03/31 04:01:34;;;;;;;;;43.40;36.70;;;;;3.72;72.64;101921.03;456017;120;385637;-70
2021/03/31 04:02:38;;;;;;;;;42.70;35.10;;;;;3.60;73.60;101918.73;455527;120;386028;-65
2021/03/31 04:03:42;;;;;;;;;49.10;41.90;;;;;3.61;74.04;101917.80;455944;120;386525;-68
2021/03/31 04:04:46;;;;;;;;;44.90;36.60;;;;;3.68;73.71;101914.98;456008;120;384807;-70
2021/03/31 04:05:49;;;;;;;;;29.80;23.20;;;;;3.63;74.06;101921.28;455761;120;382093;-71
2021/03/31 04:06:53;;;;;;;;;46.00;38.90;;;;;3.63;74.06;101921.28;455962;120;386736;-70
2021/03/31 04:07:57;;;;;;;;;44.90;33.10;;;;;3.55;74.34;101910.07;456021;120;386440;-69
2021/03/31 04:09:04;;;;;;;;;42.10;34.90;;;;;3.55;74.34;101910.07;455588;120;385746;-70
2021/03/31 04:10:09;;;;;;;;;43.00;37.40;;;;;3.65;74.51;101903.67;455593;120;384729;-71
2021/03/31 04:11:13;;;;;;;;;45.10;37.50;;;;;3.71;74.06;101911.41;455745;120;386197;-68
2021/03/31 04:12:17;;;;;;;;;41.50;36.00;;;;;3.71;74.06;101911.41;455973;120;386696;-71
2021/03/31 04:13:21;;;;;;;;;42.20;39.20;;;;;3.68;74.42;101914.11;455952;120;385534;-72
2021/03/31 04:14:25;;;;;;;;;25.40;24.20;;;;;3.47;75.53;101917.31;455997;120;386485;-71
2021/03/31 04:15:29;;;;;;;;;49.90;40.10;;;;;3.58;75.36;101912.63;455990;120;385316;-69
2021/03/31 04:16:34;;;;;;;;;44.40;40.30;;;;;3.58;75.36;101912.63;455759;120;393303;-69
2021/03/31 04:17:39;;;;;;;;;42.80;36.90;;;;;3.68;74.92;101914.98;455747;120;386591;-69
2021/03/31 04:18:43;;;;;;;;;44.60;36.20;;;;;3.68;75.07;101920.25;455339;120;392811;-74
2021/03/31 04:19:47;;;;;;;;;47.10;37.80;;;;;3.67;75.26;101917.64;456003;120;386205;-70
2021/03/31 04:20:51;;;;;;;;;52.20;43.50;;;;;3.78;75.04;101918.23;455274;120;385137;-69
2021/03/31 04:21:55;;;;;;;;;41.60;38.20;;;;;3.78;75.04;101918.23;455924;120;391714;-66
2021/03/31 04:23:00;;;;;;;;;42.40;36.00;;;;;3.83;74.71;101924.23;455999;120;385752;-69
2021/03/31 04:24:06;;;;;;;;;48.30;41.10;;;;;3.93;74.59;101917.82;455767;120;387206;-72
2021/03/31 04:25:12;;;;;;;;;48.70;41.50;;;;;4.02;74.01;101920.19;455715;120;386870;-68
2021/03/31 04:26:16;;;;;;;;;47.60;41.30;;;;;4.05;73.79;101920.11;455467;120;387242;-68
2021/03/31 04:27:20;;;;;;;;;45.00;40.20;;;;;4.15;73.42;101924.22;455952;120;386768;-69
2021/03/31 04:28:24;;;;;;;;;50.00;42.60;;;;;4.15;73.42;101924.22;455882;120;393329;-68
2021/03/31 04:29:28;;;;;;;;;54.30;44.00;;;;;4.22;73.12;101920.52;455953;120;392595;-71
2021/03/31 04:30:33;;;;;;;;;60.10;43.70;;;;;4.21;73.28;101915.31;455396;120;388502;-71
2021/03/31 04:31:37;;;;;;;;;46.80;38.70;;;;;4.24;72.92;101913.42;455977;120;386006;-71
2021/03/31 04:32:43;;;;;;;;;47.40;38.90;;;;;4.24;72.92;101913.42;455987;120;385240;-70
2021/03/31 04:33:47;;;;;;;;;48.40;39.40;;;;;4.30;72.83;101911.54;455709;118;386761;-69
2021/03/31 04:34:51;;;;;;;;;54.80;43.60;;;;;4.34;72.51;101918.45;457466;118;388209;-72
2021/03/31 04:35:55;;;;;;;;;44.80;40.10;;;;;4.39;72.06;101919.17;460169;118;385579;-71
2021/03/31 04:36:59;;;;;;;;;47.90;40.70;;;;;4.41;71.85;101920.84;460439;118;386209;-71
2021/03/31 04:38:10;;;;;;;;;49.70;38.40;;;;;4.41;71.85;101920.84;460389;118;395083;-72
2021/03/31 04:39:14;;;;;;;;;44.60;39.70;;;;;4.45;72.75;101916.36;459695;118;389481;-70
2021/03/31 04:40:21;;;;;;;;;53.90;44.10;;;;;4.46;72.22;101910.19;459870;118;384714;-69
2021/03/31 04:41:25;;;;;;;;;41.90;32.80;;;;;4.40;72.34;101920.91;460247;118;391565;-71
2021/03/31 04:42:28;;;;;;;;;50.90;42.10;;;;;4.33;72.49;101914.08;452406;121;385606;-70
2021/03/31 04:43:33;;;;;;;;;55.10;43.30;;;;;4.34;72.55;101913.19;453013;118;385267;-69
2021/03/31 04:44:37;;;;;;;;;47.60;42.10;;;;;4.36;72.76;101909.59;460201;118;386092;-68
2021/03/31 04:45:41;;;;;;;;;53.70;43.00;;;;;4.44;72.17;101906.72;460425;118;386510;-68
2021/03/31 04:46:45;;;;;;;;;49.20;42.10;;;;;4.44;72.17;101906.72;461140;117;386012;-73
2021/03/31 04:47:49;;;;;;;;;49.20;41.40;;;;;4.37;72.29;101911.30;461636;117;386720;-71
2021/03/31 04:48:52;;;;;;;;;51.80;42.10;;;;;4.39;72.42;101898.97;461406;117;386446;-69
2021/03/31 04:49:56;;;;;;;;;45.10;39.30;;;;;4.39;72.42;101898.97;457943;118;393108;-70
2021/03/31 04:51:01;;;;;;;;;51.90;42.90;;;;;4.32;72.61;101896.55;461446;117;391672;-71
2021/03/31 04:52:06;;;;;;;;;50.90;41.40;;;;;4.32;72.61;101883.38;459462;117;386858;-70
2021/03/31 04:53:11;;;;;;;;;39.50;37.90;;;;;4.39;72.66;101888.43;459622;117;386427;-70
2021/03/31 04:54:14;;;;;;;;;43.40;35.70;;;;;4.36;72.33;101887.66;457914;117;391341;-70
2021/03/31 04:55:19;;;;;;;;;48.60;41.00;;;;;4.36;72.33;101887.66;458211;118;386793;-70
2021/03/31 04:56:24;;;;;;;;;47.80;39.50;;;;;4.45;72.09;101885.61;458935;117;387345;-70
2021/03/31 04:57:28;;;;;;;;;46.70;39.50;;;;;4.52;71.93;101891.56;459889;117;387120;-70